AirNav   Pilot Hours Calculator
 
 989 users online  

5TX0 Hidden Valley Airpark
Shady Shores, Texas, USA

GOING TO SHADY SHORES?


FAA INFORMATION EFFECTIVE 08 OCTOBER 2020

Location

FAA Identifier: 5TX0
Lat/Long: 33-10-24.4310N 097-03-05.0340W
33-10.407183N 097-03.083900W
33.1734531,-97.0513983
(estimated)
Elevation: 611 ft. / 186 m (estimated)
Variation: 07E (1985)
From city: 3 miles NW of SHADY SHORES, TX
Time zone: UTC -5 (UTC -6 during Standard Time)
Zip code: 76208

Airport Operations

Airport use: Private use. Permission required prior to landing
Activation date: 11/1967
Control tower: no
ARTCC: FORT WORTH CENTER
FSS: FORT WORTH FLIGHT SERVICE STATION
Attendance: UNATNDD
Wind indicator: yes
Segmented circle: yes

Airport Communications

WX ASOS at DTO (8 nm W): 119.325 (940-383-8457)
WX AWOS-3 at ADS (16 nm SE): PHONE 972-386-4855
WX ASOS at DFW (17 nm S): PHONE 972-615-2608
WX ASOS at AFW (17 nm SW): PHONE 817-491-6188

Nearby radio navigation aids

VOR radial/distance  VOR name  Freq  Var
FUZr015/18.2RANGER VORTAC115.7006E
TTTr352/18.3MAVERICK VOR/DME113.1006E
CVEr330/18.5COWBOY VOR/DME116.2006E

 
NDB name  Hdg/Dist  Freq  Var  ID
PINCK128/9.825704EDT -.. -
MESQUITE307/34.224803EPQF .--. --.- ..-.

Airport Services

Fuel available: 100LL
Airframe service: NONE
Powerplant service: NONE

Runway Information

Runway 17/35

Dimensions: 2600 x 35 ft. / 792 x 11 m
Surface: asphalt
RUNWAY 17  RUNWAY 35
Traffic pattern: leftleft
Obstructions: none50 ft. trees, 2000 ft. from runway

Airport Ownership and Management from official FAA records

Ownership: Privately-owned
Owner: HIDDEN VALLEY MEMBERS
99 HIDDEN VALLEY AIRPARK
DENTON, TX 76208
Phone 940-300-2443
Manager: JOHN WATSON/DAVID VALDEZ
114 HIDDEN VALLEY AIRPARK
DENTON, TX 76208
Phone 940-300-2443
OTHER: 817-939-6400

Airport Operational Statistics

Aircraft based on the field: 70
Single engine airplanes: 62
Multi engine airplanes: 5
Helicopters: 3
    

Additional Remarks

REMOTE CTL AIRFIELD AND REMOTE CTL OPS SOUTHWEST OF RWY END 35. REMOTE CTL PILOTS MNT UNICOM 122.9.
FOR CD CTC REGIONAL APCH AT 972-615-2799.

Instrument Procedures

There are no published instrument procedures at 5TX0.

Some nearby airports with instrument procedures:

KDTO - Denton Enterprise Airport (8 nm W)
KADS - Addison Airport (16 nm SE)
KDFW - Dallas-Fort Worth International Airport (17 nm S)
KAFW - Fort Worth Alliance Airport (17 nm SW)
KDAL - Dallas Love Field Airport (22 nm SE)
 
Loc | Ops | Rwys | IFR | FBO | Links
Com | Nav | Svcs | Stats | Notes

City of Fort Worth
 
Area around 5TX0 (Hidden Valley Airpark)
 
Road maps at: MapQuest Bing Google
 
Aerial photo
WARNING: Photo may not be current or correct
Aerial photo of 5TX0 (Hidden Valley Airpark)
Photo taken 06-Dec-2016
looking south

Do you have a better or more recent aerial photo of Hidden Valley Airpark that you would like to share? If so, please send us your photo.

 
Sectional chart

 
Airport distance calculator
Flying to Hidden Valley Airpark? Find the distance to fly.

From to 5TX0

Sunrise and sunset
Times for 23-Oct-2020
 Local
(UTC-5)
 Zulu
(UTC)
Morning civil twilight07:1612:16
Sunrise07:4112:41
Sunset18:4423:44
Evening civil twilight19:0900:09

Current date and time
Zulu (UTC)  24-Oct-2020 01:52:52
Local (UTC-5)  23-Oct-2020 20:52:52
 
METAR
KDTO 
8nm W 
240053Z 34012KT 10SM OVC046 11/04 A3022 RMK AO2 SLP229 T01110044
KDFW 
16nm S 
240053Z 34013KT 10SM FEW029 BKN070 12/06 A3019 RMK AO2 SLP219 T01170056
KADS 
17nm SE 
240047Z 36011G17KT 13SM SCT028 12/06 A3020
KAFW 
18nm SW 
240053Z 34013KT 10SM OVC044 11/05 A3021 RMK AO2 SLP227 T01110050 $
TAF
KDFW 
16nm S 
232112Z 2321/2424 34018KT P6SM OVC021 TEMPO 2321/2322 BKN019 FM240000 35015KT P6SM BKN025 FM240900 34012KT P6SM BKN040 FM242100 VRB03KT P6SM SCT250
KAFW 
18nm SW 
232112Z 2321/2418 34018KT P6SM OVC022 TEMPO 2321/2322 BKN019 FM240000 35015KT P6SM BKN025 FM240900 34012KT P6SM BKN040
NOTAMs
Click for the latest NOTAMs
NOTAMs are issued by the DoD/FAA and will open in a separate window not controlled by AirNav.

 

 
 

Would you like to see your business listed on this page?

 If your business provides an interesting product or service to pilots, flight crews, aircraft, or users of the Hidden Valley Airpark, you should consider listing it here.  To start the listing process, click on the button below
 
Add a business
 

Other Pages about Hidden Valley Airpark

www.hiddenvalleyairpark.org
 
Update a link
 
Copyright © AirNav, LLC. All rights reserved. Privacy Policy  Contact